sensor_id;sensor_type;location;lat;lon;timestamp;pressure;altitude;pressure_sealevel;temperature;humidity
21520;BME280;10921;53.614;9.882;2022-09-09T00:01:21;100622.28;;;16.97;97.27
21520;BME280;10921;53.614;9.882;2022-09-09T00:03:57;100619.41;;;16.98;97.49
21520;BME280;10921;53.614;9.882;2022-09-09T00:06:31;100613.47;;;17.03;97.94
21520;BME280;10921;53.614;9.882;2022-09-09T00:09:04;100615.97;;;17.04;97.29
21520;BME280;10921;53.614;9.882;2022-09-09T00:11:43;100614.59;;;17.08;98.22
21520;BME280;10921;53.614;9.882;2022-09-09T00:16:54;100611.06;;;17.08;97.44
21520;BME280;10921;53.614;9.882;2022-09-09T00:19:44;100621.88;;;17.14;98.08
21520;BME280;10921;53.614;9.882;2022-09-09T00:22:20;100615.47;;;17.15;97.33
21520;BME280;10921;53.614;9.882;2022-09-09T00:24:53;100614.66;;;17.15;97.31
21520;BME280;10921;53.614;9.882;2022-09-09T00:27:46;100614.09;;;17.19;98.62
21520;BME280;10921;53.614;9.882;2022-09-09T00:32:47;100614.28;;;17.18;96.71
21520;BME280;10921;53.614;9.882;2022-09-09T00:37:52;100610.38;;;17.20;96.81
21520;BME280;10921;53.614;9.882;2022-09-09T00:40:32;100608.69;;;17.19;98.14
21520;BME280;10921;53.614;9.882;2022-09-09T00:49:35;100609.59;;;17.27;96.35
21520;BME280;10921;53.614;9.882;2022-09-09T00:54:49;100611.06;;;17.29;96.17
21520;BME280;10921;53.614;9.882;2022-09-09T00:57:32;100611.25;;;17.28;97.76
21520;BME280;10921;53.614;9.882;2022-09-09T01:08:01;100605.88;;;17.28;96.09
21520;BME280;10921;53.614;9.882;2022-09-09T01:10:38;100611.53;;;17.33;96.52
21520;BME280;10921;53.614;9.882;2022-09-09T01:13:21;100586.28;;;17.19;96.79
21520;BME280;10921;53.614;9.882;2022-09-09T01:15:50;100599.19;;;17.23;94.60
21520;BME280;10921;53.614;9.882;2022-09-09T01:18:28;100603.94;;;17.21;94.77
21520;BME280;10921;53.614;9.882;2022-09-09T01:21:20;100605.81;;;17.21;96.16
21520;BME280;10921;53.614;9.882;2022-09-09T01:26:41;100601.78;;;16.96;93.30
21520;BME280;10921;53.614;9.882;2022-09-09T01:29:12;100575.59;;;16.75;93.29
21520;BME280;10921;53.614;9.882;2022-09-09T01:31:40;100617.03;;;16.88;93.33
21520;BME280;10921;53.614;9.882;2022-09-09T01:34:12;100595.47;;;16.74;94.12
21520;BME280;10921;53.614;9.882;2022-09-09T01:39:20;100614.66;;;16.64;93.07
21520;BME280;10921;53.614;9.882;2022-09-09T01:41:47;100587.38;;;16.44;93.03
21520;BME280;10921;53.614;9.882;2022-09-09T01:44:14;100599.84;;;16.45;93.28
21520;BME280;10921;53.614;9.882;2022-09-09T01:46:40;100590.81;;;16.38;93.16
21520;BME280;10921;53.614;9.882;2022-09-09T01:49:08;100594.09;;;16.34;93.14
21520;BME280;10921;53.614;9.882;2022-09-09T01:51:36;100586.63;;;16.21;93.31
21520;BME280;10921;53.614;9.882;2022-09-09T01:54:04;100589.88;;;16.16;93.19
21520;BME280;10921;53.614;9.882;2022-09-09T01:59:31;100595.81;;;16.12;93.86
21520;BME280;10921;53.614;9.882;2022-09-09T02:02:13;100585.50;;;16.01;94.90
21520;BME280;10921;53.614;9.882;2022-09-09T02:07:31;100591.13;;;15.91;95.49
21520;BME280;10921;53.614;9.882;2022-09-09T02:12:40;100597.25;;;15.85;95.41
21520;BME280;10921;53.614;9.882;2022-09-09T02:16:01;100596.47;;;15.76;95.25
21520;BME280;10921;53.614;9.882;2022-09-09T02:18:04;100605.00;;;15.80;95.33
21520;BME280;10921;53.614;9.882;2022-09-09T02:20:37;100601.94;;;15.68;94.42
21520;BME280;10921;53.614;9.882;2022-09-09T02:23:05;100589.91;;;15.56;94.13
21520;BME280;10921;53.614;9.882;2022-09-09T02:25:36;100564.50;;;15.36;94.00
21520;BME280;10921;53.614;9.882;2022-09-09T02:28:06;100553.25;;;15.32;93.74
21520;BME280;10921;53.614;9.882;2022-09-09T02:30:34;100576.09;;;15.36;94.22
21520;BME280;10921;53.614;9.882;2022-09-09T02:33:06;100573.41;;;15.36;95.05
21520;BME280;10921;53.614;9.882;2022-09-09T02:35:34;100603.44;;;15.40;94.66
21520;BME280;10921;53.614;9.882;2022-09-09T02:38:04;100589.75;;;15.49;95.16
21520;BME280;10921;53.614;9.882;2022-09-09T02:40:32;100595.91;;;15.35;94.04
21520;BME280;10921;53.614;9.882;2022-09-09T02:42:58;100583.72;;;15.25;94.32
21520;BME280;10921;53.614;9.882;2022-09-09T02:45:34;100590.22;;;15.30;96.27
21520;BME280;10921;53.614;9.882;2022-09-09T02:48:04;100596.78;;;15.28;95.57
21520;BME280;10921;53.614;9.882;2022-09-09T02:50:45;100579.06;;;15.19;96.28
21520;BME280;10921;53.614;9.882;2022-09-09T02:53:20;100588.25;;;15.24;96.07
21520;BME280;10921;53.614;9.882;2022-09-09T02:56:04;100575.03;;;15.14;96.42
21520;BME280;10921;53.614;9.882;2022-09-09T02:58:32;100564.38;;;14.98;94.87
21520;BME280;10921;53.614;9.882;2022-09-09T03:00:59;100575.78;;;15.00;95.06
21520;BME280;10921;53.614;9.882;2022-09-09T03:03:29;100599.13;;;15.08;94.72
21520;BME280;10921;53.614;9.882;2022-09-09T03:05:56;100592.41;;;15.04;95.20
21520;BME280;10921;53.614;9.882;2022-09-09T03:08:23;100554.44;;;14.76;94.86
21520;BME280;10921;53.614;9.882;2022-09-09T03:10:49;100591.63;;;14.95;95.01
21520;BME280;10921;53.614;9.882;2022-09-09T03:13:16;100591.31;;;14.90;95.16
21520;BME280;10921;53.614;9.882;2022-09-09T03:15:45;100590.63;;;14.96;95.17
21520;BME280;10921;53.614;9.882;2022-09-09T03:18:11;100589.97;;;14.86;95.27
21520;BME280;10921;53.614;9.882;2022-09-09T03:20:38;100568.56;;;14.70;95.19
21520;BME280;10921;53.614;9.882;2022-09-09T03:23:04;100585.31;;;14.80;96.31
21520;BME280;10921;53.614;9.882;2022-09-09T03:25:31;100595.84;;;14.90;96.00
21520;BME280;10921;53.614;9.882;2022-09-09T03:27:58;100595.00;;;14.89;96.36
21520;BME280;10921;53.614;9.882;2022-09-09T03:30:26;100606.09;;;14.86;96.30
21520;BME280;10921;53.614;9.882;2022-09-09T03:32:53;100599.03;;;14.85;96.09
21520;BME280;10921;53.614;9.882;2022-09-09T03:35:19;100593.00;;;14.83;96.22
21520;BME280;10921;53.614;9.882;2022-09-09T03:37:46;100548.38;;;14.51;95.87
21520;BME280;10921;53.614;9.882;2022-09-09T03:40:13;100593.56;;;14.78;96.26
21520;BME280;10921;53.614;9.882;2022-09-09T03:42:40;100554.25;;;14.47;95.87
21520;BME280;10921;53.614;9.882;2022-09-09T03:45:08;100600.63;;;14.71;95.68
21520;BME280;10921;53.614;9.882;2022-09-09T03:47:35;100596.59;;;14.67;95.31
21520;BME280;10921;53.614;9.882;2022-09-09T03:50:03;100602.34;;;14.64;95.51
21520;BME280;10921;53.614;9.882;2022-09-09T03:52:30;100558.44;;;14.41;95.55
21520;BME280;10921;53.614;9.882;2022-09-09T03:54:56;100556.78;;;14.32;95.63
21520;BME280;10921;53.614;9.882;2022-09-09T03:57:23;100594.81;;;14.52;95.14
21520;BME280;10921;53.614;9.882;2022-09-09T03:59:50;100592.00;;;14.45;95.29
21520;BME280;10921;53.614;9.882;2022-09-09T04:02:16;100606.59;;;14.51;94.85
21520;BME280;10921;53.614;9.882;2022-09-09T04:04:42;100582.09;;;14.29;95.59
21520;BME280;10921;53.614;9.882;2022-09-09T04:07:09;100608.94;;;14.46;95.45
21520;BME280;10921;53.614;9.882;2022-09-09T04:09:36;100590.84;;;14.31;95.25
21520;BME280;10921;53.614;9.882;2022-09-09T04:12:02;100610.97;;;14.43;95.95
21520;BME280;10921;53.614;9.882;2022-09-09T04:14:29;100609.28;;;14.42;96.25
21520;BME280;10921;53.614;9.882;2022-09-09T04:16:55;100601.06;;;14.36;96.05
21520;BME280;10921;53.614;9.882;2022-09-09T04:19:24;100597.88;;;14.32;96.49
21520;BME280;10921;53.614;9.882;2022-09-09T04:21:51;100594.19;;;14.25;96.18
21520;BME280;10921;53.614;9.882;2022-09-09T04:24:17;100618.50;;;14.40;97.00
21520;BME280;10921;53.614;9.882;2022-09-09T04:26:45;100615.81;;;14.40;97.20
21520;BME280;10921;53.614;9.882;2022-09-09T04:29:11;100622.03;;;14.40;97.29
21520;BME280;10921;53.614;9.882;2022-09-09T04:31:38;100581.28;;;14.21;97.59
21520;BME280;10921;53.614;9.882;2022-09-09T04:34:11;100599.22;;;14.28;97.89
21520;BME280;10921;53.614;9.882;2022-09-09T04:36:37;100619.69;;;14.46;97.78
21520;BME280;10921;53.614;9.882;2022-09-09T04:39:05;100615.81;;;14.48;98.46
21520;BME280;10921;53.614;9.882;2022-09-09T04:41:32;100579.75;;;14.26;98.45
21520;BME280;10921;53.614;9.882;2022-09-09T04:43:58;100573.72;;;14.24;98.75
21520;BME280;10921;53.614;9.882;2022-09-09T04:46:26;100601.41;;;14.41;98.79
21520;BME280;10921;53.614;9.882;2022-09-09T04:48:53;100590.13;;;14.37;98.65
21520;BME280;10921;53.614;9.882;2022-09-09T04:51:20;100611.75;;;14.52;98.86
21520;BME280;10921;53.614;9.882;2022-09-09T04:53:46;100624.16;;;14.61;99.02
21520;BME280;10921;53.614;9.882;2022-09-09T04:56:15;100641.41;;;14.75;99.67
21520;BME280;10921;53.614;9.882;2022-09-09T04:58:42;100612.91;;;14.66;98.85
21520;BME280;10921;53.614;9.882;2022-09-09T05:01:14;100609.03;;;14.68;99.92
21520;BME280;10921;53.614;9.882;2022-09-09T05:03:42;100636.97;;;14.90;99.24
21520;BME280;10921;53.614;9.882;2022-09-09T05:06:10;100618.84;;;14.84;99.72
21520;BME280;10921;53.614;9.882;2022-09-09T05:08:38;100634.25;;;14.98;99.36
21520;BME280;10921;53.614;9.882;2022-09-09T05:11:19;100599.88;;;14.86;100.00
21520;BME280;10921;53.614;9.882;2022-09-09T05:13:46;100605.97;;;14.80;98.86
21520;BME280;10921;53.614;9.882;2022-09-09T05:16:13;100601.56;;;14.87;98.48
21520;BME280;10921;53.614;9.882;2022-09-09T05:18:40;100580.13;;;14.70;98.46
21520;BME280;10921;53.614;9.882;2022-09-09T05:21:10;100583.16;;;14.75;98.00
21520;BME280;10921;53.614;9.882;2022-09-09T05:23:37;100638.75;;;15.06;98.33
21520;BME280;10921;53.614;9.882;2022-09-09T05:26:04;100622.03;;;14.88;97.83
21520;BME280;10921;53.614;9.882;2022-09-09T05:28:34;100628.03;;;14.98;98.07
21520;BME280;10921;53.614;9.882;2022-09-09T05:31:03;100639.84;;;15.20;98.96
21520;BME280;10921;53.614;9.882;2022-09-09T05:33:37;100610.28;;;14.89;97.41
21520;BME280;10921;53.614;9.882;2022-09-09T05:36:10;100652.84;;;15.08;97.62
21520;BME280;10921;53.614;9.882;2022-09-09T05:38:43;100615.47;;;14.90;97.45
21520;BME280;10921;53.614;9.882;2022-09-09T05:41:10;100647.22;;;14.95;97.86
21520;BME280;10921;53.614;9.882;2022-09-09T05:43:44;100481.03;;;14.05;97.65
21520;BME280;10921;53.614;9.882;2022-09-09T05:46:13;100560.94;;;14.51;98.03
21520;BME280;10921;53.614;9.882;2022-09-09T05:48:43;100517.25;;;14.18;98.16
21520;BME280;10921;53.614;9.882;2022-09-09T05:51:14;100587.00;;;14.81;98.52
21520;BME280;10921;53.614;9.882;2022-09-09T05:53:46;100479.19;;;14.14;98.34
21520;BME280;10921;53.614;9.882;2022-09-09T05:56:24;100646.06;;;15.20;99.76
21520;BME280;10921;53.614;9.882;2022-09-09T05:58:56;100545.94;;;14.64;99.70
21520;BME280;10921;53.614;9.882;2022-09-09T06:01:32;100537.56;;;14.59;100.00
21520;BME280;10921;53.614;9.882;2022-09-09T06:04:02;100595.75;;;15.06;100.00
21520;BME280;10921;53.614;9.882;2022-09-09T06:06:33;100557.00;;;15.00;100.00
21520;BME280;10921;53.614;9.882;2022-09-09T06:09:05;100541.34;;;15.04;100.00
21520;BME280;10921;53.614;9.882;2022-09-09T06:11:38;100486.81;;;14.72;100.00
21520;BME280;10921;53.614;9.882;2022-09-09T06:14:06;100493.41;;;14.93;100.00
21520;BME280;10921;53.614;9.882;2022-09-09T06:16:34;100684.94;;;16.17;100.00
21520;BME280;10921;53.614;9.882;2022-09-09T06:19:02;100505.53;;;15.11;100.00
21520;BME280;10921;53.614;9.882;2022-09-09T06:21:32;100694.75;;;16.47;100.00
21520;BME280;10921;53.614;9.882;2022-09-09T06:24:03;100572.56;;;15.59;100.00
21520;BME280;10921;53.614;9.882;2022-09-09T06:26:32;100462.91;;;15.08;100.00
21520;BME280;10921;53.614;9.882;2022-09-09T06:29:00;100512.41;;;15.37;99.89
21520;BME280;10921;53.614;9.882;2022-09-09T06:31:30;100540.53;;;15.49;99.33
21520;BME280;10921;53.614;9.882;2022-09-09T06:33:58;100588.59;;;15.90;98.95
21520;BME280;10921;53.614;9.882;2022-09-09T06:36:28;100719.72;;;16.64;98.91
21520;BME280;10921;53.614;9.882;2022-09-09T06:38:58;100558.91;;;15.83;98.71
21520;BME280;10921;53.614;9.882;2022-09-09T06:41:27;100697.41;;;16.70;98.59
21520;BME280;10921;53.614;9.882;2022-09-09T06:43:58;100621.91;;;16.26;98.50
21520;BME280;10921;53.614;9.882;2022-09-09T06:46:32;100660.94;;;16.60;99.17
21520;BME280;10921;53.614;9.882;2022-09-09T06:48:59;100700.94;;;16.85;98.80
21520;BME280;10921;53.614;9.882;2022-09-09T06:51:34;100559.31;;;16.09;99.98
21520;BME280;10921;53.614;9.882;2022-09-09T06:54:03;100554.31;;;16.21;100.00
21520;BME280;10921;53.614;9.882;2022-09-09T06:56:36;100599.38;;;16.57;100.00
21520;BME280;10921;53.614;9.882;2022-09-09T06:59:06;100576.50;;;16.52;100.00
21520;BME280;10921;53.614;9.882;2022-09-09T07:01:37;100594.34;;;16.53;99.11
21520;BME280;10921;53.614;9.882;2022-09-09T07:04:08;100630.13;;;16.92;98.36
21520;BME280;10921;53.614;9.882;2022-09-09T07:06:42;100631.22;;;16.97;98.37
21520;BME280;10921;53.614;9.882;2022-09-09T07:09:12;100586.88;;;16.64;97.43
21520;BME280;10921;53.614;9.882;2022-09-09T07:11:42;100631.88;;;16.99;97.67
21520;BME280;10921;53.614;9.882;2022-09-09T07:14:10;100644.41;;;17.07;97.43
21520;BME280;10921;53.614;9.882;2022-09-09T07:16:41;100673.50;;;17.26;97.13
21520;BME280;10921;53.614;9.882;2022-09-09T07:19:08;100635.78;;;16.82;96.78
21520;BME280;10921;53.614;9.882;2022-09-09T07:21:41;100612.94;;;16.93;96.14
21520;BME280;10921;53.614;9.882;2022-09-09T07:24:13;100619.53;;;16.90;96.39
21520;BME280;10921;53.614;9.882;2022-09-09T07:26:40;100588.72;;;16.78;95.30
21520;BME280;10921;53.614;9.882;2022-09-09T07:29:09;100596.19;;;16.82;95.76
21520;BME280;10921;53.614;9.882;2022-09-09T07:31:45;100704.69;;;17.50;94.90
21520;BME280;10921;53.614;9.882;2022-09-09T07:34:12;100701.84;;;17.58;95.99
21520;BME280;10921;53.614;9.882;2022-09-09T07:36:40;100694.78;;;17.57;95.77
21520;BME280;10921;53.614;9.882;2022-09-09T07:39:12;100713.03;;;17.70;95.85
21520;BME280;10921;53.614;9.882;2022-09-09T07:41:47;100713.09;;;17.76;96.43
21520;BME280;10921;53.614;9.882;2022-09-09T07:44:16;100699.53;;;17.70;95.24
21520;BME280;10921;53.614;9.882;2022-09-09T07:46:43;100681.75;;;17.61;95.31
21520;BME280;10921;53.614;9.882;2022-09-09T07:49:12;100702.25;;;17.70;95.77
21520;BME280;10921;53.614;9.882;2022-09-09T07:51:40;100711.97;;;17.85;95.63
21520;BME280;10921;53.614;9.882;2022-09-09T07:54:10;100678.38;;;17.73;95.53
21520;BME280;10921;53.614;9.882;2022-09-09T07:56:38;100716.00;;;17.96;93.80
21520;BME280;10921;53.614;9.882;2022-09-09T07:59:06;100703.88;;;17.85;91.27
21520;BME280;10921;53.614;9.882;2022-09-09T08:01:35;100706.03;;;17.97;92.78
21520;BME280;10921;53.614;9.882;2022-09-09T08:04:14;100735.53;;;18.19;93.24
21520;BME280;10921;53.614;9.882;2022-09-09T08:06:49;100742.41;;;18.22;91.64
21520;BME280;10921;53.614;9.882;2022-09-09T08:09:16;100736.63;;;18.25;90.72
21520;BME280;10921;53.614;9.882;2022-09-09T08:11:44;100706.81;;;18.12;90.27
21520;BME280;10921;53.614;9.882;2022-09-09T08:14:11;100743.56;;;18.34;89.67
21520;BME280;10921;53.614;9.882;2022-09-09T08:16:43;100735.72;;;18.39;89.49
21520;BME280;10921;53.614;9.882;2022-09-09T08:19:10;100727.34;;;18.34;87.93
21520;BME280;10921;53.614;9.882;2022-09-09T08:21:38;100732.81;;;18.41;88.27
21520;BME280;10921;53.614;9.882;2022-09-09T08:24:07;100743.28;;;18.50;87.14
21520;BME280;10921;53.614;9.882;2022-09-09T08:26:36;100747.06;;;18.56;86.99
21520;BME280;10921;53.614;9.882;2022-09-09T08:29:05;100722.31;;;18.52;87.17
21520;BME280;10921;53.614;9.882;2022-09-09T08:31:36;100746.38;;;18.69;86.63
21520;BME280;10921;53.614;9.882;2022-09-09T08:34:04;100744.69;;;18.68;86.00
21520;BME280;10921;53.614;9.882;2022-09-09T08:36:34;100747.28;;;18.82;86.09
21520;BME280;10921;53.614;9.882;2022-09-09T08:39:01;100735.91;;;18.87;86.05
21520;BME280;10921;53.614;9.882;2022-09-09T08:55:26;100741.19;;;19.43;80.73
21520;BME280;10921;53.614;9.882;2022-09-09T08:57:56;100745.81;;;19.49;80.15
21520;BME280;10921;53.614;9.882;2022-09-09T09:00:30;100766.31;;;19.71;80.10
21520;BME280;10921;53.614;9.882;2022-09-09T09:03:25;100766.97;;;19.80;79.42
21520;BME280;10921;53.614;9.882;2022-09-09T09:06:06;100760.53;;;19.87;80.20
21520;BME280;10921;53.614;9.882;2022-09-09T09:11:23;100774.16;;;20.14;76.22
21520;BME280;10921;53.614;9.882;2022-09-09T09:17:00;100771.25;;;20.35;75.23
21520;BME280;10921;53.614;9.882;2022-09-09T09:19:29;100756.66;;;20.29;74.18
21520;BME280;10921;53.614;9.882;2022-09-09T09:24:34;100773.38;;;20.66;74.97
21520;BME280;10921;53.614;9.882;2022-09-09T09:27:18;100770.88;;;20.78;74.03
21520;BME280;10921;53.614;9.882;2022-09-09T09:29:48;100773.56;;;20.84;72.70
21520;BME280;10921;53.614;9.882;2022-09-09T09:32:39;100750.41;;;20.82;71.39
21520;BME280;10921;53.614;9.882;2022-09-09T09:35:12;100729.75;;;20.81;71.96
21520;BME280;10921;53.614;9.882;2022-09-09T09:37:40;100768.31;;;21.16;72.22
21520;BME280;10921;53.614;9.882;2022-09-09T09:40:27;100760.78;;;21.24;71.35
21520;BME280;10921;53.614;9.882;2022-09-09T09:42:56;100743.69;;;21.17;68.95
21520;BME280;10921;53.614;9.882;2022-09-09T09:45:44;100777.22;;;21.49;69.20
21520;BME280;10921;53.614;9.882;2022-09-09T09:48:34;100765.94;;;21.52;68.54
21520;BME280;10921;53.614;9.882;2022-09-09T09:51:07;100757.50;;;21.67;68.08
21520;BME280;10921;53.614;9.882;2022-09-09T09:53:37;100770.53;;;21.90;68.39
21520;BME280;10921;53.614;9.882;2022-09-09T09:56:06;100772.91;;;22.18;68.79
21520;BME280;10921;53.614;9.882;2022-09-09T10:01:24;100764.59;;;22.69;63.76
21520;BME280;10921;53.614;9.882;2022-09-09T10:03:52;100775.25;;;22.95;61.15
21520;BME280;10921;53.614;9.882;2022-09-09T10:06:34;100762.09;;;23.10;63.53
21520;BME280;10921;53.614;9.882;2022-09-09T10:09:02;100779.00;;;23.19;62.07
21520;BME280;10921;53.614;9.882;2022-09-09T10:14:17;100777.84;;;23.27;62.92
21520;BME280;10921;53.614;9.882;2022-09-09T10:17:18;100767.63;;;23.22;62.66
21520;BME280;10921;53.614;9.882;2022-09-09T10:20:32;100778.75;;;23.21;62.71
21520;BME280;10921;53.614;9.882;2022-09-09T10:23:32;100751.66;;;23.07;61.26
21520;BME280;10921;53.614;9.882;2022-09-09T10:34:46;100765.50;;;24.09;60.25
21520;BME280;10921;53.614;9.882;2022-09-09T10:43:20;100757.97;;;25.11;55.92
21520;BME280;10921;53.614;9.882;2022-09-09T10:52:00;100751.13;;;25.88;52.95
21520;BME280;10921;53.614;9.882;2022-09-09T10:57:22;100744.47;;;25.96;51.24
21520;BME280;10921;53.614;9.882;2022-09-09T10:59:53;100767.47;;;26.00;51.80
21520;BME280;10921;53.614;9.882;2022-09-09T11:02:33;100764.16;;;25.98;52.18
21520;BME280;10921;53.614;9.882;2022-09-09T11:05:14;100759.91;;;25.90;51.54
21520;BME280;10921;53.614;9.882;2022-09-09T11:07:57;100758.16;;;25.84;51.29
21520;BME280;10921;53.614;9.882;2022-09-09T11:13:43;100754.88;;;25.71;51.79
21520;BME280;10921;53.614;9.882;2022-09-09T11:18:46;100721.09;;;25.48;52.95
21520;BME280;10921;53.614;9.882;2022-09-09T11:21:23;100755.34;;;25.79;52.39
21520;BME280;10921;53.614;9.882;2022-09-09T11:23:59;100745.31;;;25.85;53.00
21520;BME280;10921;53.614;9.882;2022-09-09T11:26:32;100752.06;;;25.94;53.28
21520;BME280;10921;53.614;9.882;2022-09-09T11:33:36;100765.22;;;26.25;50.80
21520;BME280;10921;53.614;9.882;2022-09-09T11:35:33;100759.84;;;26.31;50.85
21520;BME280;10921;53.614;9.882;2022-09-09T11:41:01;100761.38;;;26.38;50.42
21520;BME280;10921;53.614;9.882;2022-09-09T11:46:05;100764.59;;;26.35;49.24
21520;BME280;10921;53.614;9.882;2022-09-09T11:48:35;100756.22;;;26.42;50.43
21520;BME280;10921;53.614;9.882;2022-09-09T11:51:24;100759.63;;;26.49;50.30
21520;BME280;10921;53.614;9.882;2022-09-09T11:53:55;100754.34;;;26.42;47.39
21520;BME280;10921;53.614;9.882;2022-09-09T11:56:26;100752.91;;;26.40;49.20
21520;BME280;10921;53.614;9.882;2022-09-09T11:58:56;100760.63;;;26.43;48.77
21520;BME280;10921;53.614;9.882;2022-09-09T12:01:39;100756.38;;;26.52;49.51
21520;BME280;10921;53.614;9.882;2022-09-09T12:06:59;100756.44;;;26.90;48.91
21520;BME280;10921;53.614;9.882;2022-09-09T12:09:57;100739.84;;;27.14;48.08
21520;BME280;10921;53.614;9.882;2022-09-09T12:12:30;100720.22;;;27.00;46.54
21520;BME280;10921;53.614;9.882;2022-09-09T12:15:02;100743.31;;;27.09;47.40
21520;BME280;10921;53.614;9.882;2022-09-09T12:17:31;100751.16;;;27.01;46.75
21520;BME280;10921;53.614;9.882;2022-09-09T12:20:01;100726.44;;;26.79;46.85
21520;BME280;10921;53.614;9.882;2022-09-09T12:28:15;100743.00;;;27.06;47.77
21520;BME280;10921;53.614;9.882;2022-09-09T12:33:18;100742.78;;;27.29;46.71
21520;BME280;10921;53.614;9.882;2022-09-09T12:35:51;100747.53;;;27.39;46.18
21520;BME280;10921;53.614;9.882;2022-09-09T12:38:32;100734.06;;;27.32;47.42
21520;BME280;10921;53.614;9.882;2022-09-09T12:41:00;100743.28;;;27.26;48.08
21520;BME280;10921;53.614;9.882;2022-09-09T12:43:27;100711.09;;;26.94;47.52
21520;BME280;10921;53.614;9.882;2022-09-09T12:45:57;100733.56;;;26.96;48.39
21520;BME280;10921;53.614;9.882;2022-09-09T12:48:45;100734.91;;;26.94;49.50
21520;BME280;10921;53.614;9.882;2022-09-09T12:51:21;100728.53;;;26.72;48.73
21520;BME280;10921;53.614;9.882;2022-09-09T12:53:51;100715.09;;;26.53;49.63
21520;BME280;10921;53.614;9.882;2022-09-09T12:56:20;100742.63;;;26.47;49.42
21520;BME280;10921;53.614;9.882;2022-09-09T12:58:49;100715.91;;;26.20;49.11
21520;BME280;10921;53.614;9.882;2022-09-09T13:01:24;100726.91;;;26.09;49.47
21520;BME280;10921;53.614;9.882;2022-09-09T13:03:52;100720.69;;;25.97;55.29
21520;BME280;10921;53.614;9.882;2022-09-09T13:06:23;100743.91;;;25.82;52.88
21520;BME280;10921;53.614;9.882;2022-09-09T13:08:59;100738.25;;;25.61;52.69
21520;BME280;10921;53.614;9.882;2022-09-09T13:11:30;100737.75;;;25.35;53.51
21520;BME280;10921;53.614;9.882;2022-09-09T13:14:01;100726.19;;;25.05;54.49
21520;BME280;10921;53.614;9.882;2022-09-09T13:16:30;100735.75;;;24.84;55.79
21520;BME280;10921;53.614;9.882;2022-09-09T13:19:06;100735.66;;;24.56;56.91
21520;BME280;10921;53.614;9.882;2022-09-09T13:21:39;100730.31;;;24.19;59.30
21520;BME280;10921;53.614;9.882;2022-09-09T13:24:30;100746.84;;;23.94;59.51
21520;BME280;10921;53.614;9.882;2022-09-09T13:27:05;100753.72;;;23.48;60.99
21520;BME280;10921;53.614;9.882;2022-09-09T13:29:54;100763.25;;;23.21;62.35
21520;BME280;10921;53.614;9.882;2022-09-09T13:32:25;100735.00;;;22.54;60.46
21520;BME280;10921;53.614;9.882;2022-09-09T13:35:00;100736.22;;;22.33;59.76
21520;BME280;10921;53.614;9.882;2022-09-09T13:37:36;100766.44;;;22.19;58.46
21520;BME280;10921;53.614;9.882;2022-09-09T13:40:04;100745.13;;;21.77;57.75
21520;BME280;10921;53.614;9.882;2022-09-09T13:42:35;100759.78;;;21.70;57.49
21520;BME280;10921;53.614;9.882;2022-09-09T13:45:05;100775.75;;;21.47;56.65
21520;BME280;10921;53.614;9.882;2022-09-09T13:47:34;100785.00;;;21.32;57.62
21520;BME280;10921;53.614;9.882;2022-09-09T13:50:33;100782.13;;;21.21;57.69
21520;BME280;10921;53.614;9.882;2022-09-09T13:53:00;100755.00;;;20.81;59.56
21520;BME280;10921;53.614;9.882;2022-09-09T13:55:28;100761.06;;;20.70;60.71
21520;BME280;10921;53.614;9.882;2022-09-09T13:58:02;100791.72;;;20.84;61.86
21520;BME280;10921;53.614;9.882;2022-09-09T14:00:31;100782.75;;;20.70;62.29
21520;BME280;10921;53.614;9.882;2022-09-09T14:02:58;100781.94;;;20.69;62.60
21520;BME280;10921;53.614;9.882;2022-09-09T14:05:28;100774.84;;;20.62;63.99
21520;BME280;10921;53.614;9.882;2022-09-09T14:07:57;100781.72;;;20.58;64.56
21520;BME280;10921;53.614;9.882;2022-09-09T14:10:24;100758.59;;;20.42;66.16
21520;BME280;10921;53.614;9.882;2022-09-09T14:12:50;100784.00;;;20.54;66.80
21520;BME280;10921;53.614;9.882;2022-09-09T14:15:17;100778.81;;;20.59;67.41
21520;BME280;10921;53.614;9.882;2022-09-09T14:17:43;100780.06;;;20.57;67.72
21520;BME280;10921;53.614;9.882;2022-09-09T14:20:11;100759.41;;;20.43;68.42
21520;BME280;10921;53.614;9.882;2022-09-09T14:22:38;100777.13;;;20.52;68.48
21520;BME280;10921;53.614;9.882;2022-09-09T14:25:05;100776.28;;;20.51;68.12
21520;BME280;10921;53.614;9.882;2022-09-09T14:27:33;100760.03;;;20.38;68.78
21520;BME280;10921;53.614;9.882;2022-09-09T14:29:59;100778.38;;;20.43;69.38
21520;BME280;10921;53.614;9.882;2022-09-09T14:32:27;100742.47;;;20.21;70.26
21520;BME280;10921;53.614;9.882;2022-09-09T14:34:53;100766.66;;;20.29;70.94
21520;BME280;10921;53.614;9.882;2022-09-09T14:37:20;100755.59;;;20.24;71.83
21520;BME280;10921;53.614;9.882;2022-09-09T14:39:46;100744.53;;;20.19;72.56
21520;BME280;10921;53.614;9.882;2022-09-09T14:42:13;100754.34;;;20.20;73.57
21520;BME280;10921;53.614;9.882;2022-09-09T14:44:40;100744.56;;;20.12;74.86
21520;BME280;10921;53.614;9.882;2022-09-09T14:47:07;100755.59;;;20.17;75.54
21520;BME280;10921;53.614;9.882;2022-09-09T14:49:35;100734.53;;;20.06;76.34
21520;BME280;10921;53.614;9.882;2022-09-09T14:52:01;100750.16;;;20.17;76.66
21520;BME280;10921;53.614;9.882;2022-09-09T14:54:28;100732.84;;;20.05;77.13
21520;BME280;10921;53.614;9.882;2022-09-09T14:56:55;100757.47;;;20.17;77.22
21520;BME280;10921;53.614;9.882;2022-09-09T14:59:23;100738.47;;;20.03;77.15
21520;BME280;10921;53.614;9.882;2022-09-09T15:01:49;100741.63;;;20.00;76.36
21520;BME280;10921;53.614;9.882;2022-09-09T15:04:16;100759.56;;;20.15;76.28
21520;BME280;10921;53.614;9.882;2022-09-09T15:06:43;100744.53;;;19.99;75.71
21520;BME280;10921;53.614;9.882;2022-09-09T15:09:13;100778.97;;;20.31;74.45